createdAt,value
2022-10-11T00:01:04.695Z,101749.22
2022-10-11T00:05:06.726Z,101752.78
2022-10-11T00:09:08.366Z,101752.88
2022-10-11T00:13:09.844Z,101756.50
2022-10-11T00:17:11.307Z,101768.13
2022-10-11T00:21:14.396Z,101765.41
2022-10-11T00:25:16.726Z,101776.06
2022-10-11T00:29:18.173Z,101776.91
2022-10-11T00:33:19.711Z,101788.50
2022-10-11T00:37:21.203Z,101787.69
2022-10-11T00:41:22.859Z,101793.00
2022-10-11T00:45:26.860Z,101792.97
2022-10-11T00:49:55.959Z,101809.78
2022-10-11T00:54:01.498Z,101797.44
2022-10-11T00:58:03.143Z,101802.72
2022-10-11T01:02:06.912Z,101806.34
2022-10-11T01:06:09.157Z,101808.13
2022-10-11T01:10:10.708Z,101812.53
2022-10-11T01:14:35.828Z,101811.69
2022-10-11T01:18:46.064Z,101816.13
2022-10-11T01:23:11.505Z,101826.81
2022-10-11T01:27:31.517Z,101830.31
2022-10-11T01:31:47.952Z,101833.88
2022-10-11T01:36:06.044Z,101838.38
2022-10-11T01:40:23.333Z,101828.53
2022-10-11T01:44:25.728Z,101833.88
2022-10-11T01:48:27.217Z,101839.16
2022-10-11T01:52:31.773Z,101841.84
2022-10-11T01:56:58.577Z,101845.44
2022-10-11T02:01:23.981Z,101850.78
2022-10-11T02:05:49.575Z,101853.44
2022-10-11T02:10:03.389Z,101847.28
2022-10-11T02:14:10.531Z,101858.75
2022-10-11T02:18:16.713Z,101865.00
2022-10-11T02:22:23.394Z,101864.09
2022-10-11T02:26:30.763Z,101875.63
2022-10-11T02:30:33.991Z,101879.16
2022-10-11T02:34:39.784Z,101887.13
2022-10-11T02:38:49.415Z,101882.66
2022-10-11T02:42:58.660Z,101883.53
2022-10-11T02:47:01.811Z,101893.31
2022-10-11T02:51:04.767Z,101900.34
2022-10-11T02:55:07.372Z,101895.91
2022-10-11T02:59:08.788Z,101903.84
2022-10-11T03:03:10.208Z,101907.44
2022-10-11T03:07:11.612Z,101912.78
2022-10-11T03:11:13.027Z,101916.28
2022-10-11T03:15:14.457Z,101917.19
2022-10-11T03:19:19.320Z,101923.41
2022-10-11T03:23:21.007Z,101930.50
2022-10-11T03:27:22.458Z,101929.56
2022-10-11T03:31:24.047Z,101943.75
2022-10-11T03:35:25.456Z,101943.75
2022-10-11T03:39:26.947Z,101945.44
2022-10-11T03:43:28.350Z,101949.00
2022-10-11T03:47:29.880Z,101957.81
2022-10-11T03:51:31.781Z,101959.63
2022-10-11T03:55:33.319Z,101964.06
2022-10-11T03:59:34.759Z,101976.47
2022-10-11T04:03:36.179Z,101976.47
2022-10-11T04:07:37.621Z,101975.56
2022-10-11T04:11:39.070Z,101979.94
2022-10-11T04:15:41.422Z,101989.63
2022-10-11T04:19:43.043Z,101987.88
2022-10-11T04:23:44.633Z,101996.75
2022-10-11T04:27:46.109Z,102003.81
2022-10-11T04:31:47.580Z,101998.50
2022-10-11T04:35:49.012Z,102009.09
2022-10-11T04:39:50.566Z,102013.53
2022-10-11T04:43:52.107Z,102011.72
2022-10-11T04:47:53.656Z,102026.69
2022-10-11T04:51:55.108Z,102023.81
2022-10-11T04:55:57.969Z,102021.16
2022-10-11T04:59:59.376Z,102029.13
2022-10-11T05:04:00.981Z,102036.88
2022-10-11T05:08:02.372Z,102036.06
2022-10-11T05:12:04.135Z,102052.00
2022-10-11T05:16:10.428Z,102052.84
2022-10-11T05:20:12.793Z,102064.28
2022-10-11T05:24:14.225Z,102067.06
2022-10-11T05:28:15.682Z,102070.75
2022-10-11T05:32:17.107Z,102080.53
2022-10-11T05:36:18.709Z,102091.06
2022-10-11T05:40:20.120Z,102101.81
2022-10-11T05:44:21.650Z,102108.84
2022-10-11T05:48:24.092Z,102114.22
2022-10-11T05:52:25.660Z,102122.28
2022-10-11T05:56:27.189Z,102114.34
2022-10-11T06:00:28.624Z,102127.63
2022-10-11T06:04:30.067Z,102126.88
2022-10-11T06:08:31.531Z,102133.16
2022-10-11T06:12:33.050Z,102138.34
2022-10-11T06:16:34.539Z,102142.91
2022-10-11T06:20:36.654Z,102145.56
2022-10-11T06:24:38.065Z,102156.28
2022-10-11T06:28:39.621Z,102164.28
2022-10-11T06:32:41.088Z,102156.28
2022-10-11T06:36:42.523Z,102166.09
2022-10-11T06:40:44.330Z,102177.66
2022-10-11T06:44:45.720Z,102185.75
2022-10-11T06:48:50.349Z,102192.03
2022-10-11T06:52:51.795Z,102187.69
2022-10-11T06:56:53.406Z,102190.47
2022-10-11T07:00:55.247Z,102199.38
2022-10-11T07:04:56.744Z,102199.44
2022-10-11T07:09:00.285Z,102202.03
2022-10-11T07:13:01.729Z,102206.59
2022-10-11T07:17:03.316Z,102219.94
2022-10-11T07:21:10.961Z,102212.84
2022-10-11T07:25:12.360Z,102225.34
2022-10-11T07:29:13.853Z,102229.78
2022-10-11T07:33:15.271Z,102228.94
2022-10-11T07:37:16.784Z,102229.81
2022-10-11T07:41:18.717Z,102230.69
2022-10-11T07:45:20.156Z,102234.28
2022-10-11T07:49:21.588Z,102251.13
2022-10-11T07:53:23.017Z,102250.25
2022-10-11T07:57:24.524Z,102245.81
2022-10-11T08:01:27.387Z,102240.44
2022-10-11T08:05:28.978Z,102235.94
2022-10-11T08:09:30.847Z,102243.00
2022-10-11T08:13:33.825Z,102245.66
2022-10-11T08:17:35.310Z,102247.44
2022-10-11T08:21:36.855Z,102251.00
2022-10-11T08:25:41.190Z,102246.34
2022-10-11T08:29:42.613Z,102244.56
2022-10-11T08:33:44.349Z,102251.81
2022-10-11T08:37:45.780Z,102255.38
2022-10-11T08:41:53.032Z,102258.78
2022-10-11T08:45:57.916Z,102264.97
2022-10-11T08:50:00.848Z,102274.91
2022-10-11T08:54:10.790Z,102265.06
2022-10-11T08:58:16.344Z,102260.59
2022-10-11T09:03:07.564Z,102264.06
2022-10-11T09:07:33.174Z,102271.81
2022-10-11T09:11:59.750Z,102272.59
2022-10-11T09:16:26.040Z,102279.59
2022-10-11T09:20:33.164Z,102290.50
2022-10-11T09:24:45.738Z,102294.13
2022-10-11T09:29:20.507Z,102290.50
2022-10-11T09:33:36.366Z,102296.56
2022-10-11T09:37:43.938Z,102295.63
2022-10-11T09:42:01.917Z,102302.75
2022-10-11T09:46:03.888Z,102307.09
2022-10-11T09:50:19.660Z,102307.06
2022-10-11T09:54:36.462Z,102320.22
2022-10-11T09:58:38.651Z,102311.53
2022-10-11T10:02:46.967Z,102323.75
2022-10-11T10:06:48.387Z,102323.31
2022-10-11T10:11:00.895Z,102318.88
2022-10-11T10:15:17.574Z,102312.41
2022-10-11T10:19:25.224Z,102328.53
2022-10-11T10:23:31.034Z,102326.75
2022-10-11T10:27:32.643Z,102330.41
2022-10-11T10:32:01.626Z,102331.22
2022-10-11T10:36:05.380Z,102344.28
2022-10-11T10:40:18.285Z,102341.28
2022-10-11T10:44:19.675Z,102347.66
2022-10-11T10:48:53.794Z,102343.63
2022-10-11T10:53:05.890Z,102344.50
2022-10-11T10:57:15.101Z,102341.91
2022-10-11T11:01:23.143Z,102335.75
2022-10-11T11:05:51.478Z,102342.53
2022-10-11T11:10:05.641Z,102342.88
2022-10-11T11:14:21.838Z,102339.69
2022-10-11T11:18:41.983Z,102342.06
2022-10-11T11:22:54.686Z,102349.75
2022-10-11T11:27:15.517Z,102341.38
2022-10-11T11:31:40.328Z,102347.81
2022-10-11T11:35:45.992Z,102348.97
2022-10-11T11:39:55.650Z,102351.06
2022-10-11T11:44:03.670Z,102344.97
2022-10-11T11:48:14.976Z,102346.31
2022-10-11T11:52:33.479Z,102350.72
2022-10-11T11:57:16.141Z,102351.84
2022-10-11T12:01:31.623Z,102356.81
2022-10-11T12:05:36.162Z,102346.94
2022-10-11T12:09:39.708Z,102352.22
2022-10-11T12:13:42.387Z,102347.44
2022-10-11T12:17:53.046Z,102349.84
2022-10-11T12:22:37.482Z,102358.19
2022-10-11T12:26:44.668Z,102354.53
2022-10-11T12:30:50.751Z,102354.31
2022-10-11T12:35:30.629Z,102343.41
2022-10-11T12:39:44.403Z,102349.56
2022-10-11T12:43:48.633Z,102346.72
2022-10-11T12:48:01.374Z,102342.94
2022-10-11T12:52:17.841Z,102348.91
2022-10-11T12:56:44.155Z,102345.28
2022-10-11T13:00:51.804Z,102349.25
2022-10-11T13:05:04.398Z,102343.69
2022-10-11T13:09:16.598Z,102345.44
2022-10-11T13:13:37.309Z,102347.44
2022-10-11T13:17:40.494Z,102355.44
2022-10-11T13:21:42.190Z,102352.56
2022-10-11T13:25:43.659Z,102358.50
2022-10-11T13:29:46.111Z,102357.94
2022-10-11T13:33:48.103Z,102358.19
2022-10-11T13:37:49.793Z,102366.47
2022-10-11T13:41:51.867Z,102382.06
2022-10-11T13:45:55.043Z,102385.03
2022-10-11T13:50:10.820Z,102398.38
2022-10-11T13:54:14.003Z,102392.25
2022-10-11T13:58:23.028Z,102389.59
2022-10-11T14:02:27.776Z,102400.41
2022-10-11T14:07:02.465Z,102390.53
2022-10-11T14:11:06.641Z,102382.47
2022-10-11T14:15:33.011Z,102384.34
2022-10-11T14:19:34.499Z,102380.72
2022-10-11T14:23:35.933Z,102376.13
2022-10-11T14:27:38.156Z,102392.94
2022-10-11T14:31:42.119Z,102383.16
2022-10-11T14:35:43.756Z,102377.56
2022-10-11T14:39:47.654Z,102366.59
2022-10-11T14:43:49.135Z,102373.78
2022-10-11T14:47:51.040Z,102379.28
2022-10-11T14:51:54.277Z,102370.44
2022-10-11T14:55:56.002Z,102368.06
2022-10-11T14:59:57.568Z,102368.06
2022-10-11T15:03:59.131Z,102365.25
2022-10-11T15:08:01.371Z,102366.97
2022-10-11T15:12:02.950Z,102365.13
2022-10-11T15:16:04.913Z,102371.44
2022-10-11T15:20:07.649Z,102371.53
2022-10-11T15:24:09.122Z,102382.25
2022-10-11T15:28:27.033Z,102377.81
2022-10-11T15:32:28.475Z,102379.59
2022-10-11T15:36:31.584Z,102383.19
2022-10-11T15:40:35.458Z,102383.25
2022-10-11T15:44:36.856Z,102391.28
2022-10-11T15:48:38.375Z,102386.88
2022-10-11T15:52:39.834Z,102388.69
2022-10-11T15:56:41.428Z,102395.78
2022-10-11T16:00:44.538Z,102401.97
2022-10-11T16:04:45.953Z,102403.91
2022-10-11T16:08:47.982Z,102394.94
2022-10-11T16:12:49.686Z,102400.34
2022-10-11T16:16:51.115Z,102407.34
2022-10-11T16:20:52.954Z,102417.22
2022-10-11T16:24:54.382Z,102412.75
2022-10-11T16:28:56.837Z,102420.72
2022-10-11T16:32:58.618Z,102412.81
2022-10-11T16:37:00.721Z,102414.59
2022-10-11T16:41:05.892Z,102403.97
2022-10-11T16:45:08.224Z,102407.47
2022-10-11T16:49:09.848Z,102411.09
2022-10-11T16:53:11.330Z,102417.34
2022-10-11T16:57:17.933Z,102414.66
2022-10-11T17:01:19.573Z,102421.84
2022-10-11T17:05:21.083Z,102409.38
2022-10-11T17:09:22.498Z,102418.34
2022-10-11T17:13:24.190Z,102420.13
2022-10-11T17:17:26.910Z,102421.91
2022-10-11T17:21:28.369Z,102419.22
2022-10-11T17:25:29.883Z,102415.69
2022-10-11T17:29:31.808Z,102412.16
2022-10-11T17:33:33.486Z,102419.25
2022-10-11T17:37:35.185Z,102415.66
2022-10-11T17:41:36.999Z,102413.00
2022-10-11T17:45:38.438Z,102414.75
2022-10-11T17:49:39.936Z,102411.19
2022-10-11T17:53:42.546Z,102417.41
2022-10-11T17:57:44.131Z,102412.88
2022-10-11T18:01:45.576Z,102420.00
2022-10-11T18:05:47.047Z,102420.84
2022-10-11T18:09:48.473Z,102419.09
2022-10-11T18:13:52.351Z,102426.09
2022-10-11T18:17:53.756Z,102424.19
2022-10-11T18:21:55.181Z,102420.66
2022-10-11T18:25:56.621Z,102426.84
2022-10-11T18:29:58.068Z,102422.34
2022-10-11T18:33:59.678Z,102425.75
2022-10-11T18:38:01.230Z,102430.31
2022-10-11T18:42:05.621Z,102420.53
2022-10-11T18:46:10.052Z,102428.56
2022-10-11T18:50:11.519Z,102420.56
2022-10-11T18:54:16.663Z,102428.56
2022-10-11T18:58:21.593Z,102431.94
2022-10-11T19:02:23.200Z,102423.91
2022-10-11T19:06:27.711Z,102428.34
2022-10-11T19:10:29.099Z,102426.56
2022-10-11T19:14:30.584Z,102424.00
2022-10-11T19:18:32.570Z,102424.81
2022-10-11T19:22:33.998Z,102419.41
2022-10-11T19:26:38.693Z,102420.47
2022-10-11T19:30:40.113Z,102431.91
2022-10-11T19:34:41.624Z,102436.34
2022-10-11T19:38:48.373Z,102435.53
2022-10-11T19:42:49.824Z,102443.63
2022-10-11T19:46:52.646Z,102433.09
2022-10-11T19:51:02.400Z,102436.66
2022-10-11T19:55:03.999Z,102443.00
2022-10-11T19:59:08.921Z,102447.47
2022-10-11T20:03:10.341Z,102443.13
2022-10-11T20:07:11.761Z,102442.31
2022-10-11T20:11:13.588Z,102441.41
2022-10-11T20:15:15.066Z,102446.81
2022-10-11T20:19:16.627Z,102444.13
2022-10-11T20:23:18.546Z,102442.31
2022-10-11T20:27:21.690Z,102447.72
2022-10-11T20:31:34.044Z,102442.34
2022-10-11T20:35:35.588Z,102451.22
2022-10-11T20:39:37.132Z,102445.00
2022-10-11T20:43:41.260Z,102445.88
2022-10-11T20:47:42.656Z,102443.22
2022-10-11T20:51:44.072Z,102450.38
2022-10-11T20:55:46.577Z,102442.34
2022-10-11T20:59:47.987Z,102445.88
2022-10-11T21:03:50.281Z,102448.53
2022-10-11T21:07:53.067Z,102442.34
2022-10-11T21:11:54.523Z,102447.69
2022-10-11T21:16:02.511Z,102438.78
2022-10-11T21:20:06.008Z,102445.03
2022-10-11T21:24:07.656Z,102451.25
2022-10-11T21:28:09.380Z,102453.03
2022-10-11T21:32:14.270Z,102461.03
2022-10-11T21:36:21.016Z,102456.59
2022-10-11T21:40:22.714Z,102460.16
2022-10-11T21:44:24.232Z,102456.63
2022-10-11T21:48:25.816Z,102466.41
2022-10-11T21:52:27.263Z,102453.94
2022-10-11T21:56:29.816Z,102459.31
2022-10-11T22:00:31.248Z,102448.59
2022-10-11T22:04:32.730Z,102458.38
2022-10-11T22:08:34.266Z,102462.84
2022-10-11T22:12:35.895Z,102464.59
2022-10-11T22:16:37.776Z,102468.19
2022-10-11T22:20:39.217Z,102470.84
2022-10-11T22:24:40.696Z,102466.34
2022-10-11T22:28:42.577Z,102460.16
2022-10-11T22:32:44.051Z,102460.16
2022-10-11T22:36:45.536Z,102462.81
2022-10-11T22:40:46.982Z,102466.38
2022-10-11T22:44:50.293Z,102467.25
2022-10-11T22:48:51.701Z,102467.25
2022-10-11T22:52:53.138Z,102470.78
2022-10-11T22:56:54.558Z,102466.31
2022-10-11T23:00:55.975Z,102469.00
2022-10-11T23:04:58.267Z,102469.91
2022-10-11T23:08:59.729Z,102475.25
2022-10-11T23:13:01.164Z,102474.38
2022-10-11T23:17:02.600Z,102469.91
2022-10-11T23:21:04.676Z,102473.47
2022-10-11T23:25:06.823Z,102470.84
2022-10-11T23:29:08.285Z,102477.03
2022-10-11T23:33:09.676Z,102476.19
2022-10-11T23:37:11.094Z,102475.28
2022-10-11T23:41:12.576Z,102482.38
2022-10-11T23:45:14.036Z,102484.13
2022-10-11T23:49:15.523Z,102483.22
2022-10-11T23:53:17.012Z,102484.13
2022-10-11T23:57:18.422Z,102484.97
